Time;durP1;ratioP1;P1;durP2;ratioP2;P2;SDS_P1;SDS_P2;PMS_P1;PMS_P2;Temp;Humidity;BMP_temperature;BMP_pressure;BME280_temperature;BME280_humidity;BME280_pressure;Samples;Min_cycle;Max_cycle;Signal;HPM_P1;HPM_P2
2023/10/11 00:01:39;;;;;;;;;17.00;17.00;;;;;20.52;49.68;101125.41;5056280;28;45339;-80
2023/10/11 00:04:23;;;;;;;;;14.00;13.33;;;;;20.48;50.20;101125.81;5055981;28;45489;-80
2023/10/11 00:06:49;;;;;;;;;10.33;9.00;;;;;20.35;50.64;101131.44;5055911;28;46515;-78
2023/10/11 00:09:16;;;;;;;;;15.00;13.00;;;;;20.34;50.27;101129.72;5056819;28;45565;-81
2023/10/11 00:11:42;;;;;;;;;12.33;12.33;;;;;20.35;49.92;101144.94;5060045;28;45213;-81
2023/10/11 00:14:07;;;;;;;;;18.33;16.33;;;;;20.27;50.45;101121.28;5059603;28;45347;-80
2023/10/11 00:16:35;;;;;;;;;19.33;16.33;;;;;20.38;50.16;101136.56;5057921;28;45341;-79
2023/10/11 00:19:00;;;;;;;;;9.00;8.67;;;;;20.40;50.20;101136.41;5059243;28;45256;-79
2023/10/11 00:21:41;;;;;;;;;23.33;15.33;;;;;20.38;50.04;101138.41;5058572;28;45235;-80
2023/10/11 00:24:07;;;;;;;;;11.67;11.67;;;;;20.38;49.98;101143.81;5059700;28;45354;-79
2023/10/11 00:26:34;;;;;;;;;16.67;14.33;;;;;20.36;50.10;101148.50;5058177;28;46228;-79
2023/10/11 00:29:00;;;;;;;;;16.00;12.00;;;;;20.23;50.21;101135.22;5058629;28;45369;-80
2023/10/11 00:31:26;;;;;;;;;15.00;12.00;;;;;20.28;50.24;101149.16;5059575;28;45295;-80
2023/10/11 00:33:53;;;;;;;;;13.33;13.33;;;;;20.17;50.42;101125.78;5058584;28;45750;-79
2023/10/11 00:36:29;;;;;;;;;16.33;14.00;;;;;20.27;49.91;101136.66;5058485;28;46628;-80
2023/10/11 00:38:54;;;;;;;;;13.00;11.00;;;;;20.13;49.92;101121.66;5058279;28;45374;-79
2023/10/11 00:41:20;;;;;;;;;19.00;15.00;;;;;20.15;49.94;101130.47;5059336;28;45777;-81
2023/10/11 00:43:50;;;;;;;;;11.33;10.67;;;;;20.13;49.74;101126.19;5059664;28;45616;-79
2023/10/11 00:46:19;;;;;;;;;10.00;10.00;;;;;20.13;49.96;101137.00;5058061;28;45394;-80
2023/10/11 00:49:07;;;;;;;;;12.33;11.67;;;;;20.17;50.06;101136.59;5059090;28;45442;-79
2023/10/11 00:51:33;;;;;;;;;13.33;12.33;;;;;20.15;49.46;101137.72;5059067;28;45323;-79
2023/10/11 00:54:04;;;;;;;;;13.33;11.00;;;;;20.15;49.58;101124.22;5058969;28;45270;-82
2023/10/11 00:56:32;;;;;;;;;10.67;9.67;;;;;20.13;49.20;101120.81;5057116;28;45330;-81
2023/10/11 00:59:10;;;;;;;;;12.00;11.00;;;;;20.16;49.52;101115.13;5058543;28;45478;-79
2023/10/11 01:01:39;;;;;;;;;15.67;12.00;;;;;20.15;49.04;101116.13;5058588;28;45234;-80
2023/10/11 01:04:06;;;;;;;;;9.33;9.33;;;;;20.14;49.35;101119.81;5057905;28;45381;-80
2023/10/11 01:06:34;;;;;;;;;11.67;9.67;;;;;20.04;49.08;101099.00;5058608;28;45763;-80
2023/10/11 01:09:00;;;;;;;;;13.33;11.33;;;;;20.14;49.19;101106.31;5056425;28;45342;-79
2023/10/11 01:11:26;;;;;;;;;13.67;11.67;;;;;20.09;49.58;101097.78;5058444;28;45323;-80
2023/10/11 01:13:52;;;;;;;;;10.00;10.00;;;;;20.11;49.49;101109.28;5058644;28;45510;-80
2023/10/11 01:16:28;;;;;;;;;9.67;9.67;;;;;19.90;49.71;101080.47;5057470;28;45410;-82
2023/10/11 01:18:53;;;;;;;;;12.33;11.33;;;;;20.03;49.29;101102.69;5058395;28;45337;-80
2023/10/11 01:21:19;;;;;;;;;13.67;11.00;;;;;20.04;49.25;101107.09;5057650;28;45345;-79
2023/10/11 01:23:45;;;;;;;;;11.33;11.33;;;;;19.99;49.56;101095.88;5058081;28;45573;-80
2023/10/11 01:26:10;;;;;;;;;16.67;12.00;;;;;20.02;49.40;101090.19;5057655;28;45504;-82
2023/10/11 01:28:38;;;;;;;;;10.00;9.33;;;;;20.02;49.69;101095.59;5058111;28;45388;-80
2023/10/11 01:31:08;;;;;;;;;13.33;12.00;;;;;20.02;49.42;101094.75;5058642;28;45292;-82
2023/10/11 01:33:40;;;;;;;;;12.00;11.00;;;;;19.99;49.77;101095.88;5059815;28;45330;-80
2023/10/11 01:36:07;;;;;;;;;13.33;11.67;;;;;19.92;49.86;101083.91;5059065;28;46383;-81
2023/10/11 01:38:46;;;;;;;;;12.33;11.00;;;;;19.86;49.99;101067.38;5058299;28;45339;-80
2023/10/11 01:41:22;;;;;;;;;16.00;10.00;;;;;19.91;49.98;101075.91;5058486;28;45172;-82
2023/10/11 01:43:49;;;;;;;;;10.33;10.00;;;;;19.90;49.65;101074.22;5059023;28;45374;-79
2023/10/11 01:46:16;;;;;;;;;10.00;8.67;;;;;19.86;49.62;101060.13;5057404;28;46162;-81
2023/10/11 01:48:43;;;;;;;;;11.67;10.33;;;;;19.78;49.65;101054.53;5057111;28;45456;-81
2023/10/11 01:51:09;;;;;;;;;10.33;10.33;;;;;19.77;49.76;101046.59;5038210;28;45351;-82
2023/10/11 01:53:38;;;;;;;;;11.00;10.00;;;;;19.81;49.67;101054.31;5037576;28;45827;-81
2023/10/11 01:56:03;;;;;;;;;10.67;10.67;;;;;19.71;49.92;101037.19;5052914;28;45352;-81
2023/10/11 01:58:29;;;;;;;;;13.00;10.00;;;;;19.65;50.17;101021.53;5056784;28;45297;-83
2023/10/11 02:00:55;;;;;;;;;14.33;11.33;;;;;19.80;49.95;101051.75;5059293;28;45207;-79
2023/10/11 02:03:24;;;;;;;;;13.00;13.00;;;;;19.77;50.25;101047.44;5059570;28;45366;-79
2023/10/11 02:05:52;;;;;;;;;12.00;11.67;;;;;19.67;50.12;101043.84;5058428;28;46174;-83
2023/10/11 02:08:17;;;;;;;;;17.33;13.33;;;;;19.68;51.14;101042.88;5058326;28;45319;-80
2023/10/11 02:10:44;;;;;;;;;11.67;10.67;;;;;19.70;51.07;101062.47;5058299;28;45355;-82
2023/10/11 02:13:10;;;;;;;;;18.00;16.00;;;;;19.60;51.47;101045.38;5056668;28;45495;-80
2023/10/11 02:15:37;;;;;;;;;16.33;11.33;;;;;19.63;51.22;101050.50;5056922;28;45314;-80
2023/10/11 02:18:10;;;;;;;;;12.67;12.33;;;;;19.63;51.76;101053.19;5057187;28;45392;-79
2023/10/11 02:20:44;;;;;;;;;12.00;11.33;;;;;19.55;51.79;101040.38;5056938;28;45824;-80
2023/10/11 02:23:11;;;;;;;;;16.33;13.00;;;;;19.43;51.71;101028.78;5056513;28;45331;-80
2023/10/11 02:25:37;;;;;;;;;17.67;12.67;;;;;19.53;51.99;101044.13;5056461;28;46274;-80
2023/10/11 02:28:07;;;;;;;;;13.33;12.33;;;;;19.52;52.16;101047.81;5057251;28;45360;-81
2023/10/11 02:30:38;;;;;;;;;14.67;12.67;;;;;19.50;51.73;101039.03;5055887;28;45208;-81
2023/10/11 02:33:04;;;;;;;;;13.00;10.00;;;;;19.48;51.99;101041.00;5056962;28;45326;-79
2023/10/11 02:35:31;;;;;;;;;11.67;11.67;;;;;19.30;51.66;101011.94;5056341;28;46242;-80
2023/10/11 02:37:59;;;;;;;;;12.00;9.00;;;;;19.33;51.87;101025.16;5058059;28;45342;-80
2023/10/11 02:40:24;;;;;;;;;13.00;13.00;;;;;19.34;51.90;101032.25;5057969;28;45235;-79
2023/10/11 02:42:53;;;;;;;;;13.67;11.00;;;;;19.42;51.69;101042.41;5058439;28;45310;-81
2023/10/11 02:45:19;;;;;;;;;14.00;9.50;;;;;19.39;51.75;101042.63;5056858;28;46171;-78
2023/10/11 02:47:45;;;;;;;;;13.00;9.67;;;;;19.38;52.05;101041.78;5059964;28;45313;-78
2023/10/11 02:50:11;;;;;;;;;15.33;14.00;;;;;19.33;52.68;101044.03;5061958;28;45412;-79
2023/10/11 02:52:37;;;;;;;;;14.33;11.33;;;;;19.26;52.81;101044.66;5063467;28;45429;-79
2023/10/11 02:55:20;;;;;;;;;14.00;11.00;;;;;19.21;53.25;101055.00;5063978;28;46500;-79
2023/10/11 02:57:46;;;;;;;;;12.00;11.00;;;;;19.05;53.26;101040.13;5061637;28;45327;-80
2023/10/11 03:00:23;;;;;;;;;12.33;11.00;;;;;19.09;53.58;101051.50;5061255;28;45330;-83
2023/10/11 03:02:54;;;;;;;;;14.33;11.00;;;;;19.12;53.28;101051.22;5061370;28;45228;-80
2023/10/11 03:05:26;;;;;;;;;14.00;9.33;;;;;19.08;52.97;101033.63;5062203;28;45518;-79
2023/10/11 03:07:52;;;;;;;;;15.67;12.00;;;;;19.12;53.22;101048.53;5071687;28;45351;-80
2023/10/11 03:10:18;;;;;;;;;14.00;12.33;;;;;19.09;52.62;101038.03;5064564;28;45503;-81
2023/10/11 03:12:44;;;;;;;;;11.67;11.33;;;;;19.12;52.51;101040.44;5059740;28;45566;-82
2023/10/11 03:15:11;;;;;;;;;15.33;12.00;;;;;19.12;52.81;101045.84;5056603;28;45361;-82
2023/10/11 03:17:41;;;;;;;;;12.00;10.33;;;;;19.09;53.02;101035.31;5057720;28;45322;-80
2023/10/11 03:20:08;;;;;;;;;11.00;10.67;;;;;19.07;53.47;101031.91;5064433;28;45541;-80
2023/10/11 03:22:35;;;;;;;;;18.00;13.00;;;;;19.02;53.18;101037.69;5072337;28;44779;-78
2023/10/11 03:25:01;;;;;;;;;12.00;11.00;;;;;18.85;53.50;101009.44;5060848;28;46979;-82
2023/10/11 03:27:36;;;;;;;;;11.67;11.67;;;;;18.88;53.94;101015.56;5056859;28;45697;-82
2023/10/11 03:30:01;;;;;;;;;11.00;11.00;;;;;18.89;54.18;101028.09;5057388;28;45396;-82
2023/10/11 03:32:26;;;;;;;;;13.33;12.00;;;;;18.85;54.29;101025.63;5055667;28;45207;-83
2023/10/11 03:34:52;;;;;;;;;20.33;14.67;;;;;18.69;54.44;101011.72;5056416;28;68550;-83
2023/10/11 03:37:20;;;;;;;;;16.00;12.00;;;;;18.75;54.41;101027.41;5056495;28;69475;-82
2023/10/11 03:39:55;;;;;;;;;10.33;9.33;;;;;18.73;54.65;101028.47;5058517;28;45211;-82
2023/10/11 03:42:21;;;;;;;;;14.00;12.00;;;;;18.62;54.43;101015.00;5057752;28;45548;-82
2023/10/11 03:44:47;;;;;;;;;13.67;11.33;;;;;18.60;54.53;101012.44;5061242;28;56825;-84
2023/10/11 03:47:23;;;;;;;;;13.00;13.00;;;;;18.64;54.65;101023.88;5061744;28;45354;-82
2023/10/11 03:49:52;;;;;;;;;10.00;8.67;;;;;18.58;54.69;101017.13;5062571;28;45314;-83
2023/10/11 03:52:30;;;;;;;;;18.00;16.00;;;;;18.48;54.67;101019.72;5063000;28;45381;-82
2023/10/11 03:55:09;;;;;;;;;14.00;12.33;;;;;18.45;54.90;101017.28;5049056;28;46141;-83
2023/10/11 03:57:40;;;;;;;;;16.67;12.67;;;;;18.40;55.00;101015.94;5061989;28;45366;-82
2023/10/11 04:00:19;;;;;;;;;11.00;11.00;;;;;18.39;55.17;101016.94;5062752;28;45332;-83
2023/10/11 04:02:44;;;;;;;;;12.00;12.00;;;;;18.36;54.92;101015.34;5061932;28;45419;-82
2023/10/11 04:05:09;;;;;;;;;9.67;9.67;;;;;18.33;54.99;101020.13;5061804;28;45256;-80
2023/10/11 04:07:35;;;;;;;;;14.00;10.33;;;;;18.27;55.41;101016.94;5059785;28;61064;-79
2023/10/11 04:10:09;;;;;;;;;13.00;13.00;;;;;18.22;54.98;101002.13;5060550;28;45454;-78
2023/10/11 04:12:37;;;;;;;;;13.00;13.00;;;;;18.27;54.88;101016.94;5039283;28;45328;-81
2023/10/11 04:15:15;;;;;;;;;11.67;10.33;;;;;18.17;55.05;100999.84;5058972;28;45829;-78
2023/10/11 04:17:41;;;;;;;;;14.33;13.00;;;;;18.26;54.79;101011.69;5058920;28;45485;-78
2023/10/11 04:20:29;;;;;;;;;12.67;11.00;;;;;18.19;54.90;101000.56;5057082;28;45453;-79
2023/10/11 04:23:10;;;;;;;;;11.00;10.67;;;;;18.15;54.75;100996.41;5059380;28;45420;-81
2023/10/11 04:25:38;;;;;;;;;12.67;10.67;;;;;18.12;54.98;100990.44;5058890;28;47218;-79
2023/10/11 04:28:05;;;;;;;;;13.67;12.00;;;;;18.20;54.92;101007.66;5058720;28;45409;-79
2023/10/11 04:30:44;;;;;;;;;15.00;12.33;;;;;18.17;55.30;101010.59;5058574;28;45491;-80
2023/10/11 04:33:19;;;;;;;;;13.00;10.00;;;;;18.18;55.22;101017.69;5042686;28;45288;-78
2023/10/11 04:35:45;;;;;;;;;12.33;11.67;;;;;18.14;55.51;101010.84;5058518;28;46252;-79
2023/10/11 04:38:11;;;;;;;;;11.00;10.67;;;;;18.10;55.34;101004.03;5058501;28;45509;-81
2023/10/11 04:40:42;;;;;;;;;14.00;12.33;;;;;18.08;55.38;101016.72;5058786;28;45383;-79
2023/10/11 04:43:20;;;;;;;;;12.33;11.00;;;;;18.06;55.63;101024.06;5057678;28;45489;-79
2023/10/11 04:45:46;;;;;;;;;10.00;10.00;;;;;18.07;55.59;101031.16;5058319;28;46054;-80
2023/10/11 04:48:15;;;;;;;;;12.00;11.00;;;;;17.91;55.41;100995.69;5058838;28;45236;-81
2023/10/11 04:50:44;;;;;;;;;12.67;10.00;;;;;18.03;55.42;101027.00;5058885;28;45350;-79
2023/10/11 04:53:17;;;;;;;;;10.33;9.67;;;;;17.98;55.42;101027.38;5057705;28;45868;-78
2023/10/11 04:55:47;;;;;;;;;9.00;9.00;;;;;18.05;55.58;101033.13;5041593;28;47956;-79
2023/10/11 04:58:21;;;;;;;;;13.67;13.00;;;;;17.98;55.55;101032.78;5037270;28;45386;-79
2023/10/11 05:00:48;;;;;;;;;11.33;10.00;;;;;18.03;55.35;101040.47;5043798;28;45299;-80
2023/10/11 05:03:17;;;;;;;;;9.00;9.00;;;;;17.99;55.21;101022.88;5055540;28;45486;-80
2023/10/11 05:05:58;;;;;;;;;12.00;12.00;;;;;17.89;55.01;101021.88;5057008;28;46040;-79
2023/10/11 05:08:50;;;;;;;;;12.67;10.33;;;;;18.03;55.32;101037.78;5053373;28;45485;-78
2023/10/11 05:11:19;;;;;;;;;10.00;9.33;;;;;17.99;55.09;101028.25;5038367;28;45352;-78
2023/10/11 05:13:59;;;;;;;;;13.00;12.00;;;;;17.82;55.18;101013.44;5055506;28;45619;-80
2023/10/11 05:16:24;;;;;;;;;11.00;11.00;;;;;17.91;54.81;101026.16;5057437;28;46324;-80
2023/10/11 05:18:50;;;;;;;;;11.00;9.67;;;;;17.95;55.11;101018.69;5060214;28;45263;-80
2023/10/11 05:21:16;;;;;;;;;12.00;10.33;;;;;17.94;54.95;101019.66;5060230;28;47891;-82
2023/10/11 05:24:14;;;;;;;;;12.33;11.00;;;;;17.72;54.87;100990.94;5053711;28;45549;-81
2023/10/11 05:26:47;;;;;;;;;12.67;8.67;;;;;17.76;55.07;101015.75;5056519;28;45483;-82
2023/10/11 05:29:31;;;;;;;;;11.33;10.67;;;;;17.87;55.05;101034.59;5060191;28;45369;-83
2023/10/11 05:34:51;;;;;;;;;14.00;10.50;;;;;17.87;55.03;101034.59;5062176;28;45295;-82
2023/10/11 05:50:57;;;;;;;;;16.33;9.33;;;;;17.75;55.32;101046.34;5058883;28;45501;-79
2023/10/11 05:53:24;;;;;;;;;10.33;9.33;;;;;17.66;55.46;101035.28;5055921;28;58243;-81
2023/10/11 05:55:51;;;;;;;;;11.00;9.33;;;;;17.62;55.55;101035.66;5044207;28;45264;-81
2023/10/11 05:58:18;;;;;;;;;15.00;10.00;;;;;17.64;55.42;101039.94;5040101;28;47483;-81
2023/10/11 06:00:49;;;;;;;;;13.33;10.00;;;;;17.43;55.81;101009.31;5052551;28;45403;-82
2023/10/11 06:03:15;;;;;;;;;14.33;11.00;;;;;17.51;55.64;101028.41;5059453;28;45215;-85
2023/10/11 06:05:40;;;;;;;;;16.00;11.67;;;;;17.62;55.68;101051.78;5057806;28;45722;-81
2023/10/11 06:08:15;;;;;;;;;9.33;9.33;;;;;17.59;55.53;101047.50;5058305;28;54975;-84
2023/10/11 06:10:41;;;;;;;;;8.00;7.00;;;;;17.54;55.16;101051.53;5043092;28;45526;-85
2023/10/11 06:13:16;;;;;;;;;11.67;10.33;;;;;17.58;55.57;101072.69;5051588;28;45393;-82
2023/10/11 06:16:00;;;;;;;;;11.00;11.00;;;;;17.59;55.52;101077.09;5058509;28;45786;-81
2023/10/11 06:21:24;;;;;;;;;15.67;12.33;;;;;17.58;55.79;101072.69;5041099;28;45334;-83
2023/10/11 06:23:51;;;;;;;;;12.00;11.67;;;;;17.52;55.83;101059.72;5041696;28;45379;-88
2023/10/11 06:26:52;;;;;;;;;16.00;12.33;;;;;17.43;56.09;101048.81;5038943;28;45423;-85
2023/10/11 06:29:32;;;;;;;;;13.33;12.00;;;;;17.71;55.57;101082.50;5105855;27;45538;-86
2023/10/11 06:32:01;;;;;;;;;15.00;12.67;;;;;17.75;55.32;101078.63;5095810;27;45492;-87
2023/10/11 06:34:32;;;;;;;;;15.67;14.67;;;;;17.56;55.13;101031.59;5090910;27;45551;-82
2023/10/11 06:36:58;;;;;;;;;11.00;11.00;;;;;17.77;55.30;101065.91;5097830;27;45432;-81
2023/10/11 06:39:33;;;;;;;;;12.00;10.67;;;;;17.80;55.27;101079.09;5100490;27;45390;-81
2023/10/11 06:42:06;;;;;;;;;12.00;12.00;;;;;17.84;55.03;101078.75;5091450;27;45461;-82
2023/10/11 06:44:32;;;;;;;;;13.33;12.33;;;;;17.88;54.68;101082.91;5084347;27;45515;-79
2023/10/11 06:46:57;;;;;;;;;13.33;11.00;;;;;17.77;54.84;101056.00;5089662;27;45620;-80
2023/10/11 06:49:23;;;;;;;;;17.33;13.00;;;;;17.95;54.43;101075.19;5091096;27;46145;-81
2023/10/11 06:51:50;;;;;;;;;13.00;11.33;;;;;17.98;53.83;101085.75;5088068;27;45840;-81
2023/10/11 06:54:16;;;;;;;;;12.33;12.33;;;;;18.02;53.86;101086.34;5095072;27;45364;-85
2023/10/11 06:56:42;;;;;;;;;13.67;12.33;;;;;17.93;53.69;101055.63;5089000;27;45456;-81
2023/10/11 06:59:07;;;;;;;;;16.00;12.33;;;;;18.03;53.64;101066.53;5094229;27;45412;-80
2023/10/11 07:01:41;;;;;;;;;16.00;14.00;;;;;18.07;53.17;101084.13;5103495;27;45234;-78
2023/10/11 07:04:07;;;;;;;;;14.67;13.33;;;;;18.08;53.50;101086.69;5121257;27;45374;-79
2023/10/11 07:06:35;;;;;;;;;12.67;11.33;;;;;17.90;52.87;101047.81;5099751;27;45170;-79
2023/10/11 07:09:05;;;;;;;;;13.00;12.67;;;;;18.20;52.92;101085.72;5084547;27;45559;-81
2023/10/11 07:11:50;;;;;;;;;14.00;13.67;;;;;18.30;52.85;101096.63;5090935;27;45350;-83
2023/10/11 07:14:15;;;;;;;;;17.33;11.00;;;;;18.31;52.64;101084.00;5088771;27;46914;-81
2023/10/11 07:16:47;;;;;;;;;15.00;13.67;;;;;18.28;52.96;101079.75;5092533;27;45492;-81
2023/10/11 07:19:15;;;;;;;;;17.00;14.00;;;;;18.30;52.72;101090.38;5083901;27;45783;-82
2023/10/11 07:24:32;;;;;;;;;20.00;12.00;;;;;18.40;52.09;101094.06;5093692;27;45372;-80
2023/10/11 07:27:08;;;;;;;;;14.33;14.33;;;;;18.44;52.46;101096.34;5093485;27;45455;-83
2023/10/11 07:29:37;;;;;;;;;17.67;13.67;;;;;18.35;52.02;101072.84;5071206;28;45359;-82
2023/10/11 07:32:04;;;;;;;;;17.33;14.67;;;;;18.43;52.09;101083.03;5070575;27;45471;-80
2023/10/11 07:34:29;;;;;;;;;15.33;13.67;;;;;18.39;52.33;101081.56;5073810;28;45296;-79
2023/10/11 07:36:55;;;;;;;;;18.00;13.33;;;;;18.39;52.45;101084.25;5070669;28;45563;-81
2023/10/11 07:41:51;;;;;;;;;16.00;12.67;;;;;18.32;52.71;101083.03;5062524;28;45433;-81
2023/10/11 07:44:18;;;;;;;;;16.67;12.33;;;;;18.51;52.85;101104.81;5059748;28;46089;-80
2023/10/11 07:46:45;;;;;;;;;18.00;16.33;;;;;18.37;52.55;101064.69;5059405;28;45481;-83
2023/10/11 07:49:14;;;;;;;;;12.67;12.67;;;;;18.66;52.02;101103.59;5061185;28;45433;-79
2023/10/11 07:51:40;;;;;;;;;12.33;12.33;;;;;18.71;51.42;101101.38;5065423;28;44783;-81
2023/10/11 07:54:07;;;;;;;;;13.00;13.00;;;;;18.71;51.35;101095.97;5052654;28;45241;-83
2023/10/11 07:56:35;;;;;;;;;14.67;13.67;;;;;18.74;51.02;101101.09;5052874;28;45490;-81
2023/10/11 07:59:07;;;;;;;;;11.67;9.00;;;;;18.75;51.27;101092.06;5056084;28;46119;-82
2023/10/11 08:01:42;;;;;;;;;17.00;13.33;;;;;18.92;50.93;101114.06;5060355;28;45401;-80
2023/10/11 08:04:21;;;;;;;;;11.00;11.00;;;;;18.92;50.48;101105.97;5060151;28;45264;-83
2023/10/11 08:06:51;;;;;;;;;12.67;10.00;;;;;18.98;50.07;101094.69;5040124;28;45522;-81
2023/10/11 08:09:19;;;;;;;;;13.67;10.33;;;;;19.10;49.47;101090.94;5052216;28;45384;-79
2023/10/11 08:11:57;;;;;;;;;12.00;12.00;;;;;19.07;49.16;101089.38;5066810;28;45252;-82
2023/10/11 08:14:28;;;;;;;;;15.67;13.33;;;;;19.24;49.03;101098.72;5080400;28;45351;-82
2023/10/11 08:16:56;;;;;;;;;14.67;10.00;;;;;19.31;48.65;101094.56;5048062;28;45493;-80
2023/10/11 08:19:22;;;;;;;;;11.33;11.33;;;;;19.17;48.90;101076.00;5051495;28;46628;-82
2023/10/11 08:21:54;;;;;;;;;12.67;9.67;;;;;19.21;48.86;101077.44;5059679;28;45501;-80
2023/10/11 08:24:25;;;;;;;;;12.67;8.67;;;;;19.18;48.63;101066.91;5041091;28;45319;-83
2023/10/11 08:26:52;;;;;;;;;13.67;11.33;;;;;19.29;48.47;101085.75;5056183;28;45442;-83
2023/10/11 08:29:27;;;;;;;;;16.00;11.33;;;;;19.38;48.70;101078.69;5073196;27;46928;-84
2023/10/11 08:31:57;;;;;;;;;12.67;11.00;;;;;19.36;47.99;101059.94;5078313;27;45184;-86
2023/10/11 08:34:27;;;;;;;;;13.67;10.00;;;;;19.40;47.49;101055.13;5079797;27;45278;-87
2023/10/11 08:36:56;;;;;;;;;9.33;9.33;;;;;19.55;47.04;101067.34;5079018;27;45671;-82
2023/10/11 08:39:44;;;;;;;;;8.67;6.00;;;;;19.70;46.74;101089.47;5074671;27;45824;-82
2023/10/11 08:42:14;;;;;;;;;12.00;11.33;;;;;19.71;46.18;101069.56;5075142;27;45425;-83
2023/10/11 08:44:46;;;;;;;;;11.33;9.00;;;;;19.86;45.75;101073.63;5080238;27;45518;-86
2023/10/11 08:47:22;;;;;;;;;9.00;9.00;;;;;20.00;45.08;101084.06;5080788;27;45456;-82
2023/10/11 08:49:50;;;;;;;;;17.67;11.00;;;;;20.06;45.24;101080.00;5084072;27;45450;-82
2023/10/11 08:52:23;;;;;;;;;11.33;11.00;;;;;20.11;45.12;101071.47;5078793;27;45420;-83
2023/10/11 08:54:49;;;;;;;;;11.00;11.00;;;;;20.30;44.87;101093.16;5081732;27;45269;-80
2023/10/11 08:57:15;;;;;;;;;14.33;11.00;;;;;20.37;44.35;101093.47;5060761;27;45650;-80
2023/10/11 08:59:48;;;;;;;;;12.33;10.67;;;;;20.39;44.00;101088.78;5068847;28;46347;-80
2023/10/11 09:02:17;;;;;;;;;13.33;13.33;;;;;20.44;43.67;101078.44;5059367;28;45385;-81
2023/10/11 09:05:28;;;;;;;;;10.33;10.00;;;;;20.55;42.21;101091.84;5059203;28;45682;-80
2023/10/11 09:07:54;;;;;;;;;8.67;6.67;;;;;20.61;41.62;101085.91;5062448;27;46165;-81
2023/10/11 09:10:27;;;;;;;;;9.00;9.00;;;;;20.71;40.93;101086.78;5075150;27;47173;-84
2023/10/11 09:12:56;;;;;;;;;8.00;6.00;;;;;20.80;40.37;101094.03;5084735;27;45321;-83
2023/10/11 09:15:43;;;;;;;;;8.00;6.00;;;;;20.84;39.94;101083.81;5082608;27;45423;-83
2023/10/11 09:18:13;;;;;;;;;10.00;7.00;;;;;20.61;39.40;101035.41;5071885;28;46216;-85
2023/10/11 09:20:42;;;;;;;;;8.00;6.00;;;;;20.94;38.44;101065.72;5083076;27;45656;-82
2023/10/11 09:23:11;;;;;;;;;5.00;5.00;;;;;21.09;38.22;101077.84;5080866;28;45304;-84
2023/10/11 09:25:59;;;;;;;;;6.00;4.67;;;;;21.21;37.78;101079.41;5092233;27;45424;-85
2023/10/11 09:28:26;;;;;;;;;5.00;5.00;;;;;21.26;37.31;101087.13;5076385;28;45441;-84
2023/10/11 09:31:12;;;;;;;;;7.67;6.00;;;;;21.36;36.90;101081.72;5080930;27;46301;-83
2023/10/11 09:33:51;;;;;;;;;5.33;5.00;;;;;21.30;37.36;101055.25;5081330;27;45427;-81
2023/10/11 09:36:24;;;;;;;;;9.00;5.00;;;;;21.38;37.39;101075.19;5063096;27;45473;-84
2023/10/11 09:38:55;;;;;;;;;6.00;5.00;;;;;21.38;37.93;101052.69;5067175;28;45547;-84
2023/10/11 09:41:38;;;;;;;;;6.33;5.00;;;;;21.60;37.85;101078.53;5068900;27;45292;-86
2023/10/11 09:44:05;;;;;;;;;8.33;7.67;;;;;21.56;38.46;101067.16;5080043;27;46072;-84
2023/10/11 09:46:33;;;;;;;;;5.00;5.00;;;;;21.78;38.69;101076.81;5081191;27;45983;-85
2023/10/11 09:49:00;;;;;;;;;5.00;5.00;;;;;21.84;39.20;101086.19;5068314;27;45378;-85
2023/10/11 09:51:26;;;;;;;;;7.33;7.00;;;;;21.93;39.04;101096.16;5064302;27;46251;-85
2023/10/11 09:53:53;;;;;;;;;5.33;5.00;;;;;22.01;39.34;101080.03;5063004;28;45298;-83
2023/10/11 09:56:30;;;;;;;;;8.00;8.00;;;;;22.18;39.66;101083.84;5081098;28;45345;-84
2023/10/11 09:59:22;;;;;;;;;7.33;3.67;;;;;22.32;39.46;101086.91;5088007;27;45378;-81
2023/10/11 10:01:56;;;;;;;;;7.00;5.00;;;;;22.49;39.55;101087.09;5093712;27;46196;-90
2023/10/11 10:04:52;;;;;;;;;7.00;5.00;;;;;22.68;39.52;101084.28;5081178;27;45412;-85
2023/10/11 10:07:26;;;;;;;;;6.67;4.33;;;;;22.86;39.10;101078.91;5071002;28;45337;-84
2023/10/11 10:09:52;;;;;;;;;4.33;4.33;;;;;23.11;39.11;101078.13;5075373;28;45436;-85
2023/10/11 10:12:21;;;;;;;;;5.00;5.00;;;;;23.25;39.26;101057.75;5071855;28;45525;-85
2023/10/11 10:14:50;;;;;;;;;7.33;6.00;;;;;23.41;39.33;101052.44;5079987;27;45531;-81
2023/10/11 10:17:16;;;;;;;;;6.50;4.50;;;;;23.67;39.24;101063.34;5075216;27;45247;-81
2023/10/11 10:19:48;;;;;;;;;5.75;5.50;;;;;23.88;38.75;101065.69;5079888;27;45472;-86
2023/10/11 10:22:23;;;;;;;;;6.50;4.75;;;;;24.01;38.29;101060.69;5097838;27;45408;-83
2023/10/11 10:24:54;;;;;;;;;5.50;4.50;;;;;24.12;38.55;101030.50;5086807;27;45325;-85
2023/10/11 10:27:34;;;;;;;;;6.00;4.25;;;;;24.52;37.69;101069.78;5080800;27;45409;-87
2023/10/11 10:30:04;;;;;;;;;4.75;4.75;;;;;24.63;37.85;101049.59;5084588;28;45256;-87
2023/10/11 10:32:29;;;;;;;;;9.25;6.50;;;;;24.89;37.14;101049.47;5085172;28;45479;-87
2023/10/11 10:35:19;;;;;;;;;6.25;3.50;;;;;24.97;36.40;101047.59;5081583;28;44677;-85
2023/10/11 10:37:47;;;;;;;;;10.00;6.25;;;;;25.13;36.66;101044.09;5076285;28;45264;-84
2023/10/11 10:40:24;;;;;;;;;6.50;4.25;;;;;25.19;35.97;101034.38;5064031;28;45486;-87
2023/10/11 10:43:20;;;;;;;;;7.25;5.00;;;;;25.50;35.89;101045.41;5073383;28;45383;-84
2023/10/11 10:45:59;;;;;;;;;6.50;6.50;;;;;25.77;34.60;101049.66;5069457;28;45723;-84
2023/10/11 10:48:25;;;;;;;;;6.00;6.00;;;;;26.13;34.66;101048.19;5073887;28;45434;-82
2023/10/11 10:51:01;;;;;;;;;8.75;5.00;;;;;26.41;34.26;101037.69;5079427;28;45608;-82
2023/10/11 10:53:51;;;;;;;;;7.25;4.50;;;;;26.61;33.50;101040.84;5096236;27;47767;-84
2023/10/11 10:56:26;;;;;;;;;9.50;5.75;;;;;26.51;33.11;100993.00;5067735;28;45375;-84
2023/10/11 10:59:14;;;;;;;;;6.25;6.00;;;;;26.95;33.11;101007.66;5056994;28;45338;-82
2023/10/11 11:01:40;;;;;;;;;9.00;5.25;;;;;27.35;32.54;101027.53;5051637;28;45363;-83
2023/10/11 11:04:07;;;;;;;;;6.50;5.75;;;;;27.40;32.89;101007.84;5038130;28;45544;-85
2023/10/11 11:06:47;;;;;;;;;8.20;6.00;;;;;27.74;32.20;101040.16;5056106;28;45996;-90
2023/10/11 11:09:15;;;;;;;;;6.00;4.75;;;;;27.70;31.36;101006.03;5065167;28;45334;-88
2023/10/11 11:11:41;;;;;;;;;6.00;6.00;;;;;27.87;31.80;100996.63;5044276;28;45416;-89
2023/10/11 11:14:15;;;;;;;;;9.00;8.00;;;;;28.08;31.41;100999.41;5059818;28;46494;-89
2023/10/11 11:16:44;;;;;;;;;9.80;8.80;;;;;28.45;30.84;101011.28;5069405;28;45298;-87
2023/10/11 11:19:17;;;;;;;;;4.60;4.60;;;;;28.69;31.39;101013.66;5062344;28;45746;-88
2023/10/11 11:21:46;;;;;;;;;7.75;5.75;;;;;28.73;31.10;100978.53;5074220;28;45391;-86
2023/10/11 11:24:19;;;;;;;;;5.75;3.75;;;;;29.03;30.41;101006.63;5047533;28;47367;-85
2023/10/11 11:26:45;;;;;;;;;8.40;6.40;;;;;28.94;30.86;100995.00;5057980;28;45441;-84
2023/10/11 11:29:16;;;;;;;;;11.20;7.00;;;;;28.90;31.50;101004.63;5079514;27;45627;-82
2023/10/11 11:31:53;;;;;;;;;11.60;6.60;;;;;28.76;31.86;101005.50;5092362;27;45169;-83
2023/10/11 11:34:28;;;;;;;;;7.40;5.40;;;;;28.83;31.78;101000.09;5099956;27;45474;-84
2023/10/11 11:36:58;;;;;;;;;11.60;5.80;;;;;28.91;31.51;100987.19;5099831;27;45785;-84
2023/10/11 11:41:53;;;;;;;;;8.00;8.00;;;;;29.57;30.59;101000.59;5079430;27;45496;-85
2023/10/11 11:44:22;;;;;;;;;6.00;4.60;;;;;29.82;30.04;100996.34;5086781;27;47368;-83
2023/10/11 11:46:51;;;;;;;;;5.60;5.60;;;;;29.88;29.65;100968.09;5069609;27;46777;-86
2023/10/11 11:49:20;;;;;;;;;4.40;4.00;;;;;30.11;29.57;100969.72;5082886;27;45258;-83
2023/10/11 11:51:53;;;;;;;;;4.80;4.80;;;;;30.78;29.24;100966.97;5079637;28;45533;-88
2023/10/11 11:54:28;;;;;;;;;5.00;5.00;;;;;31.42;27.95;100945.44;5079601;27;45965;-87
2023/10/11 11:56:54;;;;;;;;;7.00;5.00;;;;;32.49;27.34;100959.47;5083228;27;45506;-85
2023/10/11 11:59:21;;;;;;;;;4.00;3.20;;;;;33.17;26.12;100933.97;5068858;27;45428;-82